createdAt,value
2023-01-19T00:00:21.361Z,100314.41
2023-01-19T00:02:48.487Z,100313.25
2023-01-19T00:05:15.501Z,100314.88
2023-01-19T00:07:42.252Z,100312.91
2023-01-19T00:10:09.902Z,100316.25
2023-01-19T00:12:36.978Z,100312.09
2023-01-19T00:15:03.985Z,100310.31
2023-01-19T00:17:30.869Z,100307.53
2023-01-19T00:19:57.743Z,100315.09
2023-01-19T00:22:24.528Z,100319.88
2023-01-19T00:24:51.304Z,100315.94
2023-01-19T00:27:18.083Z,100310.63
2023-01-19T00:29:44.925Z,100314.75
2023-01-19T00:32:11.808Z,100310.63
2023-01-19T00:34:39.856Z,100319.03
2023-01-19T00:37:07.494Z,100314.09
2023-01-19T00:39:34.355Z,100316.88
2023-01-19T00:42:11.573Z,100316.38
2023-01-19T00:44:38.452Z,100324.59
2023-01-19T00:47:06.109Z,100319.59
2023-01-19T00:49:32.944Z,100317.75
2023-01-19T00:51:59.964Z,100311.13
2023-01-19T00:54:27.621Z,100317.91
2023-01-19T00:56:54.551Z,100314.91
2023-01-19T00:59:21.442Z,100313.56
2023-01-19T01:01:48.510Z,100315.03
2023-01-19T01:04:15.591Z,100317.97
2023-01-19T01:06:42.470Z,100313.50
2023-01-19T01:09:12.242Z,100319.72
2023-01-19T01:11:40.230Z,100327.94
2023-01-19T01:14:07.753Z,100329.41
2023-01-19T01:16:34.832Z,100321.97
2023-01-19T01:19:01.876Z,100331.50
2023-01-19T01:21:28.762Z,100328.78
2023-01-19T01:23:55.645Z,100333.06
2023-01-19T01:26:22.640Z,100333.69
2023-01-19T01:28:49.533Z,100339.09
2023-01-19T01:31:16.405Z,100332.47
2023-01-19T01:33:43.274Z,100329.47
2023-01-19T01:36:12.109Z,100328.44
2023-01-19T01:38:40.045Z,100334.66
2023-01-19T01:41:07.397Z,100330.00
2023-01-19T01:43:44.287Z,100339.56
2023-01-19T01:46:11.714Z,100342.66
2023-01-19T01:48:39.477Z,100341.53
2023-01-19T01:51:18.818Z,100335.22
2023-01-19T01:53:47.869Z,100341.94
2023-01-19T01:56:18.014Z,100332.50
2023-01-19T01:58:44.974Z,100336.44
2023-01-19T02:01:21.912Z,100337.91
2023-01-19T02:03:48.842Z,100334.59
2023-01-19T02:06:15.984Z,100331.78
2023-01-19T02:08:55.788Z,100336.88
2023-01-19T02:11:31.864Z,100337.50
2023-01-19T02:13:58.847Z,100335.63
2023-01-19T02:16:25.702Z,100341.22
2023-01-19T02:18:52.726Z,100341.03
2023-01-19T02:21:20.827Z,100341.47
2023-01-19T02:23:50.431Z,100344.56
2023-01-19T02:26:19.479Z,100345.19
2023-01-19T02:28:50.625Z,100347.25
2023-01-19T02:31:17.952Z,100355.31
2023-01-19T02:33:44.877Z,100348.69
2023-01-19T02:36:13.708Z,100343.19
2023-01-19T02:38:41.766Z,100342.91
2023-01-19T02:41:12.349Z,100352.53
2023-01-19T02:43:39.727Z,100348.91
2023-01-19T02:46:06.464Z,100339.44
2023-01-19T02:48:33.359Z,100342.84
2023-01-19T02:51:04.487Z,100347.31
2023-01-19T02:53:31.386Z,100349.38
2023-01-19T02:56:06.817Z,100346.38
2023-01-19T02:58:40.701Z,100343.38
2023-01-19T03:01:17.044Z,100348.44
2023-01-19T03:03:55.939Z,100344.81
2023-01-19T03:06:23.616Z,100352.16
2023-01-19T03:08:56.278Z,100346.66
2023-01-19T03:11:25.357Z,100351.41
2023-01-19T03:13:56.970Z,100357.31
2023-01-19T03:16:27.606Z,100359.38
2023-01-19T03:18:58.547Z,100359.69
2023-01-19T03:21:27.276Z,100365.25
2023-01-19T03:23:56.411Z,100365.25
2023-01-19T03:26:25.448Z,100361.22
2023-01-19T03:28:53.114Z,100372.69
2023-01-19T03:31:23.349Z,100369.97
2023-01-19T03:33:53.664Z,100359.13
2023-01-19T03:36:24.685Z,100367.28
2023-01-19T03:38:52.541Z,100364.25
2023-01-19T03:41:21.845Z,100370.25
2023-01-19T03:43:50.230Z,100363.28
2023-01-19T03:46:19.248Z,100358.53
2023-01-19T03:48:46.449Z,100357.19
2023-01-19T03:51:14.668Z,100367.00
2023-01-19T03:53:42.166Z,100368.44
2023-01-19T03:56:17.259Z,100374.03
2023-01-19T03:58:44.196Z,100369.38
2023-01-19T04:01:11.312Z,100367.19
2023-01-19T04:03:38.342Z,100372.78
2023-01-19T04:06:05.401Z,100370.06
2023-01-19T04:08:32.936Z,100368.59
2023-01-19T04:10:59.852Z,100368.38
2023-01-19T04:13:28.898Z,100369.81
2023-01-19T04:15:56.340Z,100375.16
2023-01-19T04:18:23.262Z,100374.09
2023-01-19T04:20:50.123Z,100368.50
2023-01-19T04:23:17.289Z,100369.41
2023-01-19T04:25:44.163Z,100368.56
2023-01-19T04:28:11.034Z,100368.06
2023-01-19T04:30:38.269Z,100372.88
2023-01-19T04:33:05.158Z,100380.66
2023-01-19T04:35:32.066Z,100372.88
2023-01-19T04:37:58.936Z,100374.31
2023-01-19T04:40:25.873Z,100370.38
2023-01-19T04:42:52.823Z,100366.75
2023-01-19T04:45:19.677Z,100369.09
2023-01-19T04:47:46.527Z,100368.88
2023-01-19T04:50:13.571Z,100365.78
2023-01-19T04:52:40.439Z,100366.66
2023-01-19T04:55:07.895Z,100373.69
2023-01-19T04:57:34.732Z,100371.41
2023-01-19T05:00:01.673Z,100357.25
2023-01-19T05:02:28.803Z,100360.94
2023-01-19T05:04:55.765Z,100359.25
2023-01-19T05:07:22.725Z,100358.75
2023-01-19T05:09:49.628Z,100355.19
2023-01-19T05:12:16.584Z,100349.09
2023-01-19T05:14:43.819Z,100355.19
2023-01-19T05:17:10.772Z,100356.31
2023-01-19T05:19:37.728Z,100359.44
2023-01-19T05:22:05.049Z,100358.59
2023-01-19T05:24:32.234Z,100359.66
2023-01-19T05:26:59.215Z,100356.56
2023-01-19T05:29:26.205Z,100366.00
2023-01-19T05:31:53.242Z,100369.03
2023-01-19T05:34:20.383Z,100370.06
2023-01-19T05:36:47.268Z,100370.63
2023-01-19T05:39:14.287Z,100366.09
2023-01-19T05:41:42.261Z,100357.94
2023-01-19T05:44:09.838Z,100359.81
2023-01-19T05:46:36.749Z,100358.94
2023-01-19T05:49:05.336Z,100361.09
2023-01-19T05:51:35.448Z,100358.25
2023-01-19T05:54:02.619Z,100357.88
2023-01-19T05:56:29.656Z,100361.72
2023-01-19T05:58:56.528Z,100356.91
2023-01-19T06:01:23.915Z,100358.81
2023-01-19T06:03:51.294Z,100359.53
2023-01-19T06:06:19.306Z,100352.19
2023-01-19T06:08:46.248Z,100360.22
2023-01-19T06:11:13.423Z,100355.66
2023-01-19T06:13:41.961Z,100355.59
2023-01-19T06:16:09.657Z,100356.34
2023-01-19T06:18:36.538Z,100357.09
2023-01-19T06:21:04.810Z,100355.31
2023-01-19T06:23:32.350Z,100351.63
2023-01-19T06:25:59.361Z,100345.09
2023-01-19T06:28:26.293Z,100344.19
2023-01-19T06:30:54.234Z,100343.25
2023-01-19T06:33:21.593Z,100357.94
2023-01-19T06:35:49.601Z,100351.44
2023-01-19T06:38:18.737Z,100363.34
2023-01-19T06:40:46.428Z,100354.88
2023-01-19T06:43:13.683Z,100353.41
2023-01-19T06:45:40.714Z,100365.38
2023-01-19T06:48:08.814Z,100358.00
2023-01-19T06:50:35.809Z,100357.91
2023-01-19T06:53:03.038Z,100362.59
2023-01-19T06:55:30.257Z,100376.47
2023-01-19T06:57:58.777Z,100371.09
2023-01-19T07:00:26.316Z,100380.22
2023-01-19T07:02:53.499Z,100376.47
2023-01-19T07:05:22.338Z,100379.47
2023-01-19T07:07:52.265Z,100382.50
2023-01-19T07:10:19.205Z,100388.31
2023-01-19T07:12:47.728Z,100391.00
2023-01-19T07:15:16.710Z,100387.56
2023-01-19T07:17:44.237Z,100383.53
2023-01-19T07:20:14.577Z,100398.56
2023-01-19T07:22:42.117Z,100399.91
2023-01-19T07:25:09.824Z,100397.28
2023-01-19T07:27:36.728Z,100396.69
2023-01-19T07:30:04.853Z,100402.78
2023-01-19T07:32:31.882Z,100396.59
2023-01-19T07:34:59.011Z,100395.41
2023-01-19T07:37:25.980Z,100402.06
2023-01-19T07:39:52.889Z,100400.31
2023-01-19T07:42:19.802Z,100407.53
2023-01-19T07:44:47.028Z,100404.66
2023-01-19T07:47:14.166Z,100408.00
2023-01-19T07:49:41.135Z,100408.81
2023-01-19T07:52:08.159Z,100406.22
2023-01-19T07:54:35.167Z,100409.22
2023-01-19T07:57:02.480Z,100411.69
2023-01-19T07:59:30.616Z,100413.88
2023-01-19T08:01:59.860Z,100411.25
2023-01-19T08:04:27.385Z,100409.75
2023-01-19T08:06:55.673Z,100418.88
2023-01-19T08:09:23.168Z,100423.97
2023-01-19T08:11:50.185Z,100420.22
2023-01-19T08:14:17.288Z,100421.88
2023-01-19T08:16:44.347Z,100419.28
2023-01-19T08:19:11.706Z,100415.00
2023-01-19T08:21:39.395Z,100415.53
2023-01-19T08:24:06.797Z,100421.66
2023-01-19T08:26:35.314Z,100415.72
2023-01-19T08:29:04.188Z,100416.25
2023-01-19T08:31:31.395Z,100425.50
2023-01-19T08:33:58.536Z,100432.13
2023-01-19T08:36:25.662Z,100439.38
2023-01-19T08:38:52.924Z,100441.03
2023-01-19T08:41:20.287Z,100438.75
2023-01-19T08:43:47.515Z,100437.63
2023-01-19T08:46:17.839Z,100436.44
2023-01-19T08:48:45.593Z,100446.50
2023-01-19T08:51:13.163Z,100444.84
2023-01-19T08:53:40.195Z,100446.50
2023-01-19T08:56:12.614Z,100445.69
2023-01-19T08:58:41.460Z,100450.47
2023-01-19T09:01:09.180Z,100448.81
2023-01-19T09:03:36.933Z,100446.84
2023-01-19T09:06:07.237Z,100443.22
2023-01-19T09:08:34.343Z,100440.72
2023-01-19T09:11:01.811Z,100438.22
2023-01-19T09:13:29.000Z,100440.84
2023-01-19T09:15:56.252Z,100441.66
2023-01-19T09:18:23.705Z,100441.13
2023-01-19T09:20:51.309Z,100451.84
2023-01-19T09:23:19.872Z,100452.78
2023-01-19T09:25:47.599Z,100452.78
2023-01-19T09:28:15.907Z,100453.75
2023-01-19T09:30:43.604Z,100454.03
2023-01-19T09:33:11.887Z,100457.97
2023-01-19T09:35:39.705Z,100458.13
2023-01-19T09:38:09.290Z,100458.72
2023-01-19T09:40:42.264Z,100464.66
2023-01-19T09:43:12.710Z,100463.56
2023-01-19T09:45:46.532Z,100460.25
2023-01-19T09:48:16.584Z,100460.91
2023-01-19T09:50:47.792Z,100467.09
2023-01-19T09:53:19.201Z,100463.28
2023-01-19T09:55:46.321Z,100467.22
2023-01-19T09:58:16.615Z,100466.19
2023-01-19T10:00:47.956Z,100464.84
2023-01-19T10:03:16.575Z,100467.94
2023-01-19T10:05:45.172Z,100481.44
2023-01-19T10:08:18.789Z,100476.25
2023-01-19T10:10:48.620Z,100481.00
2023-01-19T10:13:17.335Z,100480.50
2023-01-19T10:15:50.560Z,100484.22
2023-01-19T10:18:17.912Z,100480.69
2023-01-19T10:20:47.999Z,100482.44
2023-01-19T10:23:18.276Z,100483.06
2023-01-19T10:25:45.688Z,100490.09
2023-01-19T10:28:14.149Z,100493.22
2023-01-19T10:30:43.215Z,100490.19
2023-01-19T10:33:12.849Z,100497.25
2023-01-19T10:35:39.982Z,100496.19
2023-01-19T10:38:12.510Z,100493.50
2023-01-19T10:40:48.074Z,100499.41
2023-01-19T10:43:18.189Z,100486.84
2023-01-19T10:45:50.380Z,100489.75
2023-01-19T10:48:17.568Z,100486.72
2023-01-19T10:50:44.743Z,100486.22
2023-01-19T10:53:14.928Z,100482.28
2023-01-19T10:55:42.207Z,100489.59
2023-01-19T10:58:27.517Z,100486.25
2023-01-19T11:00:54.831Z,100481.50
2023-01-19T11:03:23.596Z,100475.78
2023-01-19T11:05:51.215Z,100478.25
2023-01-19T11:08:21.276Z,100485.00
2023-01-19T11:10:53.134Z,100480.84
2023-01-19T11:13:20.271Z,100472.75
2023-01-19T11:15:47.633Z,100478.66
2023-01-19T11:18:17.901Z,100466.44
2023-01-19T11:20:48.220Z,100472.31
2023-01-19T11:23:16.304Z,100465.66
2023-01-19T11:25:46.601Z,100467.34
2023-01-19T11:28:16.827Z,100465.13
2023-01-19T11:30:54.461Z,100468.53
2023-01-19T11:33:24.422Z,100463.78
2023-01-19T11:35:52.048Z,100467.50
2023-01-19T11:38:20.914Z,100466.13
2023-01-19T11:40:51.154Z,100472.66
2023-01-19T11:43:18.373Z,100479.38
2023-01-19T11:45:46.426Z,100469.09
2023-01-19T11:48:19.160Z,100468.78
2023-01-19T11:50:46.439Z,100467.44
2023-01-19T11:53:16.458Z,100472.75
2023-01-19T11:55:49.763Z,100472.19
2023-01-19T11:58:17.698Z,100471.16
2023-01-19T12:00:47.692Z,100468.97
2023-01-19T12:03:18.646Z,100481.28
2023-01-19T12:05:49.266Z,100478.56
2023-01-19T12:08:19.628Z,100471.63
2023-01-19T12:10:48.160Z,100466.31
2023-01-19T12:13:20.110Z,100463.53
2023-01-19T12:15:48.827Z,100454.91
2023-01-19T12:18:20.547Z,100459.97
2023-01-19T12:20:49.998Z,100453.88
2023-01-19T12:23:25.492Z,100450.53
2023-01-19T12:25:55.765Z,100442.75
2023-01-19T12:28:27.862Z,100439.97
2023-01-19T12:30:55.785Z,100440.88
2023-01-19T12:33:26.075Z,100440.88
2023-01-19T12:35:57.579Z,100440.56
2023-01-19T12:38:33.237Z,100445.63
2023-01-19T12:41:03.474Z,100446.75
2023-01-19T12:43:30.487Z,100446.53
2023-01-19T12:45:57.673Z,100433.69
2023-01-19T12:48:25.589Z,100429.22
2023-01-19T12:50:52.821Z,100440.72
2023-01-19T12:53:21.075Z,100433.97
2023-01-19T12:55:58.273Z,100433.75
2023-01-19T12:58:26.195Z,100430.97
2023-01-19T13:01:12.940Z,100429.28
2023-01-19T13:03:43.285Z,100431.25
2023-01-19T13:06:10.437Z,100429.88
2023-01-19T13:08:40.542Z,100428.75
2023-01-19T13:11:10.747Z,100428.53
2023-01-19T13:13:38.333Z,100426.53
2023-01-19T13:16:08.398Z,100422.41
2023-01-19T13:18:41.166Z,100414.84
2023-01-19T13:21:09.801Z,100413.19
2023-01-19T13:23:39.916Z,100418.78
2023-01-19T13:26:07.669Z,100421.06
2023-01-19T13:28:38.363Z,100422.19
2023-01-19T13:31:07.337Z,100420.50
2023-01-19T13:33:40.941Z,100424.13
2023-01-19T13:36:17.236Z,100422.19
2023-01-19T13:38:44.436Z,100425.25
2023-01-19T13:41:15.528Z,100431.97
2023-01-19T13:43:43.494Z,100429.19
2023-01-19T13:46:12.030Z,100432.50
2023-01-19T13:48:39.514Z,100423.91
2023-01-19T13:51:07.825Z,100422.75
2023-01-19T13:53:35.098Z,100424.75
2023-01-19T13:56:05.118Z,100430.34
2023-01-19T13:58:32.428Z,100441.25
2023-01-19T14:00:59.578Z,100437.94
2023-01-19T14:03:27.146Z,100441.25
2023-01-19T14:05:55.073Z,100437.63
2023-01-19T14:08:23.124Z,100438.78
2023-01-19T14:10:53.377Z,100439.34
2023-01-19T14:13:22.023Z,100446.91
2023-01-19T14:15:51.719Z,100447.22
2023-01-19T14:18:19.147Z,100448.06
2023-01-19T14:20:49.371Z,100444.72
2023-01-19T14:23:24.052Z,100457.84
2023-01-19T14:25:51.134Z,100457.31
2023-01-19T14:28:21.149Z,100456.78
2023-01-19T14:30:51.350Z,100466.59
2023-01-19T14:33:21.771Z,100460.19
2023-01-19T14:35:48.804Z,100470.81
2023-01-19T14:38:16.362Z,100473.34
2023-01-19T14:40:44.566Z,100466.44
2023-01-19T14:43:13.539Z,100468.06
2023-01-19T14:45:41.784Z,100471.47
2023-01-19T14:48:11.986Z,100467.22
2023-01-19T14:50:44.221Z,100464.75
2023-01-19T14:53:16.779Z,100463.38
2023-01-19T14:55:44.206Z,100464.53
2023-01-19T14:58:13.685Z,100471.50
2023-01-19T15:00:41.191Z,100469.00
2023-01-19T15:03:10.295Z,100474.06
2023-01-19T15:05:39.288Z,100470.50
2023-01-19T15:08:07.520Z,100475.81
2023-01-19T15:10:35.767Z,100483.63
2023-01-19T15:13:02.860Z,100480.31
2023-01-19T15:15:31.947Z,100488.13
2023-01-19T15:18:00.400Z,100483.16
2023-01-19T15:20:28.063Z,100481.25
2023-01-19T15:22:55.232Z,100498.84
2023-01-19T15:25:26.239Z,100497.44
2023-01-19T15:27:53.451Z,100508.09
2023-01-19T15:30:24.032Z,100511.16
2023-01-19T15:32:51.304Z,100527.63
2023-01-19T15:35:20.142Z,100530.69
2023-01-19T15:37:47.819Z,100525.38
2023-01-19T15:40:15.133Z,100527.91
2023-01-19T15:42:42.618Z,100534.59
2023-01-19T15:45:12.915Z,100537.63
2023-01-19T15:47:40.101Z,100542.41
2023-01-19T15:50:08.150Z,100536.22
2023-01-19T15:52:35.159Z,100542.63
2023-01-19T15:55:02.422Z,100540.38
2023-01-19T15:57:29.622Z,100552.91
2023-01-19T15:59:56.759Z,100543.66
2023-01-19T16:02:23.803Z,100550.59
2023-01-19T16:04:50.850Z,100545.81
2023-01-19T16:07:17.981Z,100556.91
2023-01-19T16:09:45.311Z,100560.78
2023-01-19T16:12:12.626Z,100564.38
2023-01-19T16:14:39.781Z,100569.91
2023-01-19T16:17:07.148Z,100569.28
2023-01-19T16:19:34.225Z,100568.34
2023-01-19T16:22:01.319Z,100571.66
2023-01-19T16:24:28.598Z,100580.59
2023-01-19T16:26:55.686Z,100577.75
2023-01-19T16:29:22.835Z,100577.69
2023-01-19T16:31:50.112Z,100593.56
2023-01-19T16:34:18.472Z,100588.22
2023-01-19T16:36:45.637Z,100591.81
2023-01-19T16:39:14.276Z,100590.91
2023-01-19T16:41:41.961Z,100597.28
2023-01-19T16:44:10.314Z,100600.28
2023-01-19T16:46:39.498Z,100605.50
2023-01-19T16:49:11.334Z,100613.00
2023-01-19T16:51:38.780Z,100614.88
2023-01-19T16:54:05.929Z,100612.88
2023-01-19T16:56:33.246Z,100619.22
2023-01-19T16:59:00.550Z,100622.25
2023-01-19T17:01:29.254Z,100631.41
2023-01-19T17:03:56.953Z,100626.88
2023-01-19T17:06:24.440Z,100635.19
2023-01-19T17:08:52.463Z,100635.13
2023-01-19T17:11:22.291Z,100629.47
2023-01-19T17:13:54.478Z,100630.19
2023-01-19T17:16:22.494Z,100634.38
2023-01-19T17:18:49.948Z,100635.44
2023-01-19T17:21:18.476Z,100637.31
2023-01-19T17:23:46.347Z,100640.91
2023-01-19T17:26:13.986Z,100640.31
2023-01-19T17:28:41.423Z,100638.03
2023-01-19T17:31:11.224Z,100649.69
2023-01-19T17:33:39.232Z,100649.06
2023-01-19T17:36:07.817Z,100654.91
2023-01-19T17:38:35.781Z,100663.19
2023-01-19T17:41:02.989Z,100669.03
2023-01-19T17:43:30.130Z,100679.63
2023-01-19T17:45:57.622Z,100666.69
2023-01-19T17:48:25.094Z,100667.72
2023-01-19T17:50:54.458Z,100673.88
2023-01-19T17:53:22.136Z,100681.34
2023-01-19T17:55:49.477Z,100683.25
2023-01-19T17:58:16.699Z,100683.44
2023-01-19T18:00:43.865Z,100690.72
2023-01-19T18:03:11.307Z,100698.22
2023-01-19T18:05:38.723Z,100697.59
2023-01-19T18:08:06.234Z,100709.84
2023-01-19T18:10:33.748Z,100715.97
2023-01-19T18:13:00.817Z,100713.69
2023-01-19T18:15:28.218Z,100715.28
2023-01-19T18:17:55.461Z,100721.72
2023-01-19T18:20:23.103Z,100718.63
2023-01-19T18:22:50.369Z,100721.94
2023-01-19T18:25:17.514Z,100731.09
2023-01-19T18:27:44.800Z,100735.25
2023-01-19T18:30:12.472Z,100739.13
2023-01-19T18:32:40.190Z,100744.22
2023-01-19T18:35:07.717Z,100744.41
2023-01-19T18:37:35.020Z,100750.88
2023-01-19T18:40:04.632Z,100757.31
2023-01-19T18:42:34.037Z,100753.88
2023-01-19T18:45:02.215Z,100754.72
2023-01-19T18:47:29.537Z,100756.38
2023-01-19T18:49:56.554Z,100744.03
2023-01-19T18:52:23.900Z,100754.63
2023-01-19T18:54:50.914Z,100760.22
2023-01-19T18:57:19.213Z,100759.31
2023-01-19T18:59:47.793Z,100763.78
2023-01-19T19:02:15.198Z,100761.81
2023-01-19T19:04:42.750Z,100763.69
2023-01-19T19:07:09.849Z,100766.16
2023-01-19T19:09:36.951Z,100774.00
2023-01-19T19:12:04.131Z,100774.50
2023-01-19T19:14:31.308Z,100784.28
2023-01-19T19:16:58.943Z,100780.66
2023-01-19T19:19:26.029Z,100781.69
2023-01-19T19:21:54.115Z,100785.00
2023-01-19T19:24:21.162Z,100784.41
2023-01-19T19:26:48.208Z,100791.69
2023-01-19T19:29:15.494Z,100792.19
2023-01-19T19:31:42.698Z,100795.00
2023-01-19T19:34:12.743Z,100786.50
2023-01-19T19:36:39.740Z,100789.00
2023-01-19T19:39:06.886Z,100794.81
2023-01-19T19:41:34.251Z,100795.66
2023-01-19T19:44:01.302Z,100797.31
2023-01-19T19:46:28.511Z,100797.81
2023-01-19T19:48:55.652Z,100806.78
2023-01-19T19:51:25.790Z,100805.31
2023-01-19T19:53:54.454Z,100807.28
2023-01-19T19:56:23.202Z,100807.50
2023-01-19T19:58:51.584Z,100817.91
2023-01-19T20:01:19.769Z,100815.59
2023-01-19T20:03:47.147Z,100819.88
2023-01-19T20:06:15.649Z,100817.91
2023-01-19T20:08:42.663Z,100823.81
2023-01-19T20:11:12.608Z,100831.69
2023-01-19T20:13:40.688Z,100831.19
2023-01-19T20:16:10.743Z,100840.72
2023-01-19T20:18:39.646Z,100838.84
2023-01-19T20:21:10.551Z,100841.94
2023-01-19T20:23:38.955Z,100854.34
2023-01-19T20:26:08.873Z,100853.78
2023-01-19T20:28:37.261Z,100861.16
2023-01-19T20:31:07.685Z,100851.06
2023-01-19T20:33:35.022Z,100853.38
2023-01-19T20:36:02.207Z,100857.91
2023-01-19T20:38:29.913Z,100869.72
2023-01-19T20:40:56.972Z,100869.53
2023-01-19T20:43:24.364Z,100878.53
2023-01-19T20:45:53.167Z,100878.00
2023-01-19T20:48:20.441Z,100890.13
2023-01-19T20:50:47.884Z,100883.19
2023-01-19T20:53:15.251Z,100888.78
2023-01-19T20:55:42.494Z,100892.50
2023-01-19T20:58:09.598Z,100890.81
2023-01-19T21:00:37.092Z,100907.66
2023-01-19T21:03:04.813Z,100900.16
2023-01-19T21:05:32.079Z,100899.91
2023-01-19T21:07:59.301Z,100894.91
2023-01-19T21:10:26.831Z,100903.63
2023-01-19T21:12:54.138Z,100902.78
2023-01-19T21:15:21.566Z,100905.34
2023-01-19T21:17:49.278Z,100912.94
2023-01-19T21:20:17.548Z,100913.50
2023-01-19T21:22:45.085Z,100917.75
2023-01-19T21:25:12.655Z,100920.31
2023-01-19T21:27:40.070Z,100921.75
2023-01-19T21:30:07.734Z,100925.44
2023-01-19T21:32:34.992Z,100928.53
2023-01-19T21:35:02.707Z,100933.91
2023-01-19T21:37:30.989Z,100935.13
2023-01-19T21:39:58.148Z,100932.91
2023-01-19T21:42:25.379Z,100945.34
2023-01-19T21:44:52.510Z,100947.34
2023-01-19T21:47:19.904Z,100948.81
2023-01-19T21:49:47.100Z,100943.31
2023-01-19T21:52:14.258Z,100949.25
2023-01-19T21:54:41.557Z,100955.13
2023-01-19T21:57:08.609Z,100961.34
2023-01-19T21:59:35.748Z,100962.47
2023-01-19T22:02:03.167Z,100964.19
2023-01-19T22:04:30.485Z,100962.81
2023-01-19T22:06:57.539Z,100969.34
2023-01-19T22:09:24.648Z,100970.47
2023-01-19T22:11:52.040Z,100971.91
2023-01-19T22:14:19.221Z,100976.41
2023-01-19T22:16:46.692Z,100977.53
2023-01-19T22:19:14.790Z,100972.50
2023-01-19T22:21:42.038Z,100973.09
2023-01-19T22:24:09.301Z,100972.63
2023-01-19T22:26:37.318Z,100976.56
2023-01-19T22:29:05.346Z,100978.81
2023-01-19T22:31:32.923Z,100980.72
2023-01-19T22:34:00.382Z,100983.53
2023-01-19T22:36:30.324Z,100982.97
2023-01-19T22:39:00.192Z,100993.31
2023-01-19T22:41:29.050Z,100997.78
2023-01-19T22:43:57.307Z,100998.88
2023-01-19T22:46:25.813Z,100995.75
2023-01-19T22:48:53.442Z,100998.28
2023-01-19T22:51:22.030Z,101005.22
2023-01-19T22:53:49.298Z,101013.06
2023-01-19T22:56:19.434Z,101000.47
2023-01-19T22:58:46.911Z,101005.19
2023-01-19T23:01:15.881Z,101006.25
2023-01-19T23:03:43.280Z,101014.09
2023-01-19T23:06:12.026Z,101016.00
2023-01-19T23:08:39.262Z,101008.69
2023-01-19T23:11:07.284Z,101011.44
2023-01-19T23:13:42.315Z,101018.09
2023-01-19T23:16:10.373Z,101018.34
2023-01-19T23:18:37.748Z,101022.22
2023-01-19T23:21:05.830Z,101015.72
2023-01-19T23:23:33.390Z,101015.97
2023-01-19T23:26:04.945Z,101020.69
2023-01-19T23:28:31.953Z,101021.75
2023-01-19T23:30:59.108Z,101017.25
2023-01-19T23:33:26.176Z,101018.31
2023-01-19T23:35:55.428Z,101025.00
2023-01-19T23:38:22.710Z,101026.06
2023-01-19T23:40:49.766Z,101029.09
2023-01-19T23:43:16.823Z,101028.19
2023-01-19T23:45:43.850Z,101026.47
2023-01-19T23:48:10.872Z,101024.72
2023-01-19T23:50:39.479Z,101027.81
2023-01-19T23:53:06.479Z,101027.22
2023-01-19T23:55:33.538Z,101027.72
2023-01-19T23:58:00.468Z,101029.41
